• Join FlightAware (Why Join?)
  • Login
  • US Flag 
04:34AM EDT


 

Airport Tracker/Info


-or-


 

Live Flight TrackerFlight Track Log ✈ GJS3706 ✈ 28-Jun-2013 ✈ KALB - KORD

Flight Track Log - Related Links

Times and Time Zones

All times are in EDT time to prevent confusion due to time zone crossing. See the GJS3706 flight status page for this flight to view local times or setup timezone preferences in your user account.

Time Position Orientation Groundspeed Altitude Reporting Facility
EDT Latitude Longitude Course Direction KTS MPH feet Rate Location/Type
11:31AM 42.7278 -73.8081 270° West 161 185 1,000  Level Boston Center
11:32AM 42.6900 -73.8158 189° South 186 214 2,200 1,860 Climbing Boston Center
11:34AM 42.7344 -73.9269 299° West 260 299 5,500 2,220 Climbing Boston Center
11:35AM 43.0141 -74.1264 279° West  Level FlightAware Approximate
11:35AM 42.7814 -74.0072 309° West 266 306 8,100  Level Boston Center
11:36AM 43.0248 -74.2633 276° West  Level FlightAware Approximate
11:36AM 42.8322 -74.0906 310° West 277 319 10,500  Level Boston Center
11:37AM 43.0333 -74.4005 270° West  Level FlightAware Approximate
11:37AM 42.8911 -74.2000 306° West 324 373 12,200  Level Boston Center
11:38AM 42.9458 -74.3008 307° West 358 412 13,600 1,560 Climbing Boston Center
11:39AM 43.0147 -74.4250 307° West 375 432 15,400 1,680 Climbing Boston Center
11:40AM 43.0353 -74.5506 283° West 373 429 17,000 1,800 Climbing Boston Center
11:41AM 43.0492 -74.6933 278° West 380 437 19,000 1,800 Climbing Boston Center
11:42AM 43.0608 -74.8386 276° West 390 449 20,600 1,500 Climbing Boston Center
11:43AM 43.0722 -74.9897 276° West 390 449 22,100 1,200 Climbing Boston Center
11:44AM 43.0819 -75.1067 277° West 390 449 23,100 1,080 Climbing Boston Center
11:45AM 43.0942 -75.2950 275° West 400 460 24,300 1,080 Climbing Boston Center
11:46AM 43.1083 -75.4692 276° West 416 479 25,300 960 Climbing Boston Center
11:47AM 43.1206 -75.6347 276° West 429 494 26,300 960 Climbing Boston Center
11:48AM 43.1325 -75.8003 276° West 434 499 27,300 1,020 Climbing Boston Center
11:50AM 43.1333 -76.0833 270° West 440 506 29,300 1,020 Climbing Toronto Center
11:51AM 43.1500 -76.2500 278° West 440 506 30,400 960 Climbing Toronto Center
11:52AM 43.1500 -76.4333 270° West 450 518 31,300 960 Climbing Toronto Center
11:53AM 43.1500 -76.6000 270° West 440 506 32,400 1,020 Climbing Toronto Center
11:54AM 43.1500 -76.7500 270° West 440 506 33,400 840 Climbing Toronto Center
11:55AM 43.1500 -76.9167 270° West 440 506 34,100 660 Climbing Toronto Center
11:56AM 43.1500 -77.1000 270° West 440 506 34,800 660 Climbing Toronto Center
11:57AM 43.1333 -77.2500 261° West 450 518 35,500 660 Climbing Toronto Center
11:58AM 43.1500 -77.4333 277° West 450 518 36,200 660 Climbing Toronto Center
11:59AM 43.1500 -77.6000 270° West 450 518 36,900 660 Climbing Toronto Center
12:00PM 43.1333 -77.7833 263° West 440 506 37,600 540 Climbing Toronto Center
12:01PM 43.1333 -77.9500 270° West 440 506 38,000 180 Climbing Toronto Center
12:02PM 43.1333 -78.1000 270° West 440 506 38,000  Level Toronto Center
12:03PM 43.1333 -78.2833 270° West 440 506 38,000  Level Toronto Center
12:04PM 43.1167 -78.4500 262° West 440 506 38,000  Level Toronto Center
12:05PM 43.1333 -78.6333 277° West 450 518 38,000  Level Toronto Center
12:06PM 43.1167 -78.7833 261° West 450 518 38,000  Level Toronto Center
12:07PM 43.1167 -78.9667 270° West 450 518 38,000  Level Toronto Center
12:08PM 43.1167 -79.1333 270° West 450 518 38,000  Level Toronto Center
12:09PM 43.1167 -79.2833 270° West 460 529 38,000  Level Toronto Center
12:10PM 43.1000 -79.4667 263° West 460 529 38,000  Level Toronto Center
12:11PM 43.1000 -79.6500 270° West 460 529 38,000  Level Toronto Center
12:12PM 43.1000 -79.8167 270° West 460 529 38,000  Level Toronto Center
12:13PM 43.1000 -80.0000 270° West 460 529 38,000  Level Toronto Center
12:14PM 43.1000 -80.1833 270° West 470 541 38,000  Level Toronto Center
12:15PM 43.0833 -80.3667 263° West 460 529 38,000  Level Toronto Center
12:16PM 43.0833 -80.5167 270° West 470 541 38,000  Level Toronto Center
12:17PM 43.0833 -80.7000 270° West 460 529 38,000  Level Toronto Center
12:18PM 43.0667 -80.8833 263° West 460 529 38,000  Level Toronto Center
12:19PM 43.0667 -81.0500 270° West 460 529 38,000  Level Toronto Center
12:20PM 43.0500 -81.2333 263° West 460 529 38,000  Level Toronto Center
12:21PM 43.0500 -81.4167 270° West 460 529 38,000  Level Toronto Center
12:22PM 43.0500 -81.6000 270° West 460 529 38,000  Level Toronto Center
12:23PM 43.0500 -81.7500 270° West 460 529 38,000  Level Toronto Center
12:24PM 43.0333 -81.9333 263° West 460 529 38,000  Level Toronto Center
12:25PM 43.0333 -82.1167 270° West 460 529 38,000  Level Toronto Center
12:26PM 43.0167 -82.3000 263° West 460 529 38,000  Level Toronto Center
12:27PM 43.0167 -82.4667 270° West 460 529 38,000 -180 Level Toronto Center
12:28PM 43.0000 -82.6500 263° West 460 529 37,700 -420 Descending Toronto Center
12:28PM 43.0128 -82.7667 279° West 469 540 37,400 -540 Descending Cleveland Center
12:29PM 43.0050 -82.9425 267° West 469 540 36,900 -600 Descending Cleveland Center
12:30PM 42.9972 -83.1097 266° West 459 528 36,200 -720 Descending Cleveland Center
12:31PM 42.9892 -83.2853 266° West 459 528 35,500 -720 Descending Cleveland Center
12:32PM 42.9828 -83.4639 267° West 464 534 34,800 -720 Descending Cleveland Center
12:33PM 42.9719 -83.6422 265° West 470 541 34,100 -720 Descending Cleveland Center
12:34PM 42.9586 -83.8203 264° West 475 547 33,400 -720 Descending Cleveland Center
12:35PM 42.9411 -84.0008 263° West 480 552 32,700 -720 Descending Cleveland Center
12:36PM 42.9267 -84.1550 263° West 490 564 32,100 -420 Descending Chicago Center
12:37PM 42.9094 -84.3381 263° West 488 562 32,000 -60 Descending Chicago Center
12:38PM 42.8908 -84.5172 262° West 480 552 32,000  Level Chicago Center
12:39PM 42.8714 -84.6969 262° West 480 552 32,000  Level Chicago Center
12:40PM 42.8531 -84.8764 262° West 480 552 32,000  Level Chicago Center
12:41PM 42.8344 -85.0553 262° West 479 551 32,000  Level Chicago Center
12:42PM 42.8117 -85.2692 262° West 477 549 32,000 -660 Level Chicago Center
12:43PM 42.7919 -85.4464 261° West 473 544 30,700 -1,800 Descending Chicago Center
12:44PM 42.7647 -85.6153 258° West 460 529 28,300 -2,280 Descending Chicago Center
12:45PM 42.7372 -85.7717 257° West 430 495 26,100 -2,100 Descending Chicago Center
12:46PM 42.7094 -85.9231 256° West 414 476 24,000 -2,040 Descending Chicago Center
12:47PM 42.6825 -86.0706 256° West 404 465 22,000 -1,740 Descending Chicago Center
12:49PM 42.6583 -86.2053 256° West 379 436 20,500 -1,800 Descending Chicago Center
12:50PM 42.6292 -86.3497 255° West 335 386 18,400 -1,920 Descending Chicago Center
12:51PM 42.6086 -86.4644 256° West 315 362 16,500 -1,740 Descending Chicago Center
12:52PM 42.5869 -86.5778 255° West 310 357 14,800 -1,560 Descending Chicago Center
12:53PM 42.5661 -86.6892 256° West 307 353 13,300 -1,500 Descending Chicago Center
12:54PM 42.5356 -86.8147 252° West 340 391 11,800 -1,500 Descending Chicago Center
12:55PM 42.5039 -86.9375 251° West 345 397 10,300 -900 Descending Chicago Center
12:56PM 42.4725 -87.0483 249° West 304 350 10,000 -660 Descending Chicago Center
12:57PM 42.4397 -87.1664 249° West 282 325 9,000 -540 Descending Chicago Center
12:58PM 42.4119 -87.2644 249° West 280 322 9,000  Level Chicago Center
12:59PM 42.3536 -87.3200 215° Southwest 297 342 9,000 -300 Level Chicago Center
01:00PM 42.2569 -87.3075 175° South 305 351 8,400 -840 Descending Chicago Center
01:01PM 42.1742 -87.2969 175° South 301 346 7,300 -720 Descending Chicago Center
01:02PM 42.0942 -87.3047 184° South 293 337 7,000 -420 Descending Chicago Center
01:03PM 42.0342 -87.3625 216° Southwest 280 322 6,500 -540 Descending Chicago Center
01:04PM 41.9878 -87.4403 231° Southwest 267 307 6,000 -420 Descending Chicago Center
01:05PM 41.9811 -87.5508 265° West 250 288 5,700 -780 Descending Chicago Center
01:06PM 41.9844 -87.6333 273° West 229 264 4,400 -1,200 Descending Chicago Center
01:07PM 41.9850 -87.7106 271° West 220 253 3,300 -1,080 Descending Chicago Center